createdAt,value
2023-02-20T11:25:44.066Z,83.50
2023-02-20T12:43:45.317Z,78.80
2023-02-20T12:46:17.101Z,78.80
2023-02-20T12:49:06.383Z,78.70
2023-02-20T12:51:53.450Z,78.70
2023-02-20T12:54:30.240Z,78.80
2023-02-20T12:57:23.181Z,78.50
2023-02-20T13:00:14.301Z,77.90
2023-02-20T13:02:50.290Z,78.20
2023-02-20T13:05:20.826Z,78.40
2023-02-20T13:07:52.746Z,78.60
2023-02-20T13:10:46.932Z,78.40
2023-02-20T13:13:17.645Z,78.30
2023-02-20T13:15:52.961Z,78.50
2023-02-20T13:18:44.261Z,78.60
2023-02-20T13:21:19.237Z,78.90
2023-02-20T13:23:54.794Z,79.30
2023-02-20T13:26:44.754Z,79.20
2023-02-20T13:29:16.865Z,79.00
2023-02-20T13:31:47.435Z,79.20
2023-02-20T13:34:15.356Z,79.20
2023-02-20T13:36:50.758Z,79.00
2023-02-20T13:39:21.839Z,78.80
2023-02-20T13:42:04.701Z,77.90
2023-02-20T13:44:34.548Z,77.90
2023-02-20T13:47:05.293Z,77.80
2023-02-20T13:49:48.406Z,77.80
2023-02-20T13:52:39.842Z,77.60
2023-02-20T13:55:16.531Z,77.80
2023-02-20T13:57:55.580Z,77.50
2023-02-20T14:00:23.273Z,77.60
2023-02-20T14:02:51.008Z,77.80
2023-02-20T14:05:28.157Z,77.70
2023-02-20T14:07:55.823Z,77.80
2023-02-20T14:10:36.700Z,77.90
2023-02-20T14:13:07.564Z,77.90
2023-02-20T14:15:51.426Z,78.00
2023-02-20T14:19:20.749Z,77.90
2023-02-20T14:21:49.102Z,78.00
2023-02-20T14:24:25.897Z,77.90
2023-02-20T14:27:24.403Z,78.30
2023-02-20T14:30:04.446Z,78.50
2023-02-20T14:32:41.395Z,78.60
2023-02-20T14:38:27.328Z,78.20
2023-02-20T14:41:03.665Z,78.00
2023-02-20T14:47:18.124Z,77.70
